Flight Information

DEPARTURE
PALM SPRINGS, CA
Elevation:
476
Runways:
13L/31R - 4952x75 - ASPH-G
13R/31L - 10000x150 - ASPH-G
Active PE Departure:
31L - 31R
Current PE ATIS:
L
Altimeter:
29.70
Remarks:
V F R DEPARTURES CONTACT CLEARANCE DELIVERY, ADVISE ON COURSE HEADING, ALTITUDE, AND IF FLIGHT FOLLOWING IS REQUESTED.
ATIS:
124.65 760-327-2770
Clearance Delivery:
128.35
Ground:
121.9
Tower:
119.7
DESTINATION
GRAND JUNCTION, CO
Elevation:
4861
TPA:
5861 (est.)
Runways:
11/29 - 10503x150 - ASPH-E
4/22 - 5501x75 - ASPH-G
ATIS:
118.55
Tower:
GRAND JUNCTION TOWER 118.1
Ground:
121.7


498.7 NM48° True-14° Var34° HDG

Flight Plan:
(click to file on line)

1. Type
2. Aircraft Identification
3. Aircraft Type / Special Equipment
4. True Airspeed
kts
5. Departure Airport
(ICAO code)
6. Arriving Airport
(ICAO code)
7. Cruising Altitude
ft
8. Alternate Airport
(ICAO code)
9. Route of Flight
10. Remarks


00:00:00 Departure ATIS: Destination ATIS:

Clearance Limit:
Route:
Altitude: Expect in minutes
Frequency:
Transponder: (7500 Hijack / 7600 Lost Comms / 7700 Emergency)


KPSP 110353Z 31011KT 10SM CLR 29/07 A2970 RMK AO2 SLP052 T02890072
Time: 2021-04-11T03:53:00Z
1618114687
Winds: 310 @ 11 kts
Visibility: 10.0 sm
Clouds (AGL): CLR
Temperature: 28.9 C
Dew Point: 7.2 C
Pressure: 29.698818 in Hgbr

KGJT 110353Z AUTO 09004KT 10SM CLR 09/M15 A2979 RMK AO2 SLP058 T00941150
Time: 2021-04-11T03:53:00Z
1618114687
Winds: 90 @ 4 kts
Visibility: 10.0 sm
Clouds (AGL): CLR
Temperature: 9.4 C
Dew Point: -15.0 C
Pressure: 29.790354 in Hgbr


Notes:

Data extracted from FAA Digital Chart Supplement. Effective: 0901Z Thursday, Feb 25, 2021 to 0901Z Thursday, APR 22, 2021
Current ATIS data is provided courtisy of PilotEdge.